sensor_id;sensor_type;location;lat;lon;timestamp;pressure;altitude;pressure_sealevel;temperature;humidity
20909;BME280;10614;53.198;6.570;2023-05-21T00:01:38;102124.41;;;15.26;89.37
20909;BME280;10614;53.198;6.570;2023-05-21T00:03:42;102138.25;;;15.34;89.40
20909;BME280;10614;53.198;6.570;2023-05-21T00:05:45;102129.59;;;15.29;89.29
20909;BME280;10614;53.198;6.570;2023-05-21T00:07:51;102126.94;;;15.29;89.05
20909;BME280;10614;53.198;6.570;2023-05-21T00:09:54;102106.38;;;15.12;88.92
20909;BME280;10614;53.198;6.570;2023-05-21T00:11:56;102098.69;;;15.06;90.13
20909;BME280;10614;53.198;6.570;2023-05-21T00:13:57;102133.16;;;15.28;89.65
20909;BME280;10614;53.198;6.570;2023-05-21T00:15:59;102130.66;;;15.25;90.09
20909;BME280;10614;53.198;6.570;2023-05-21T00:18:01;102131.63;;;15.22;90.51
20909;BME280;10614;53.198;6.570;2023-05-21T00:20:03;102125.69;;;15.15;91.07
20909;BME280;10614;53.198;6.570;2023-05-21T00:22:06;102134.50;;;15.16;90.60
20909;BME280;10614;53.198;6.570;2023-05-21T00:24:10;102118.94;;;15.07;90.67
20909;BME280;10614;53.198;6.570;2023-05-21T00:26:12;102132.78;;;15.15;91.15
20909;BME280;10614;53.198;6.570;2023-05-21T00:28:14;102124.22;;;15.08;91.41
20909;BME280;10614;53.198;6.570;2023-05-21T00:30:16;102131.06;;;15.14;91.49
20909;BME280;10614;53.198;6.570;2023-05-21T00:32:17;102117.91;;;15.11;91.26
20909;BME280;10614;53.198;6.570;2023-05-21T00:34:19;102124.88;;;15.13;91.52
20909;BME280;10614;53.198;6.570;2023-05-21T00:36:21;102118.78;;;15.11;91.37
20909;BME280;10614;53.198;6.570;2023-05-21T00:38:24;102113.53;;;15.10;91.48
20909;BME280;10614;53.198;6.570;2023-05-21T00:40:29;102125.78;;;15.12;91.48
20909;BME280;10614;53.198;6.570;2023-05-21T00:42:31;102116.13;;;15.11;92.23
20909;BME280;10614;53.198;6.570;2023-05-21T00:44:38;102111.75;;;15.10;92.49
20909;BME280;10614;53.198;6.570;2023-05-21T00:46:40;102107.63;;;15.03;92.53
20909;BME280;10614;53.198;6.570;2023-05-21T00:48:44;102106.56;;;15.07;92.28
20909;BME280;10614;53.198;6.570;2023-05-21T00:50:46;102109.19;;;15.07;92.13
20909;BME280;10614;53.198;6.570;2023-05-21T00:52:48;102098.53;;;15.09;92.22
20909;BME280;10614;53.198;6.570;2023-05-21T00:54:51;102096.03;;;15.06;92.49
20909;BME280;10614;53.198;6.570;2023-05-21T00:56:54;102093.56;;;15.01;92.38
20909;BME280;10614;53.198;6.570;2023-05-21T00:58:57;102090.09;;;14.99;92.92
20909;BME280;10614;53.198;6.570;2023-05-21T01:00:59;102085.81;;;14.95;93.30
20909;BME280;10614;53.198;6.570;2023-05-21T01:03:03;102094.75;;;14.92;93.37
20909;BME280;10614;53.198;6.570;2023-05-21T01:05:05;102089.50;;;14.91;93.86
20909;BME280;10614;53.198;6.570;2023-05-21T01:07:07;102091.44;;;14.87;94.40
20909;BME280;10614;53.198;6.570;2023-05-21T01:09:09;102078.44;;;14.80;93.89
20909;BME280;10614;53.198;6.570;2023-05-21T01:11:12;102093.50;;;14.79;94.25
20909;BME280;10614;53.198;6.570;2023-05-21T01:13:16;102090.84;;;14.79;94.44
20909;BME280;10614;53.198;6.570;2023-05-21T01:15:20;102066.50;;;14.68;95.28
20909;BME280;10614;53.198;6.570;2023-05-21T01:17:22;102082.97;;;14.77;94.73
20909;BME280;10614;53.198;6.570;2023-05-21T01:19:24;102080.47;;;14.73;95.69
20909;BME280;10614;53.198;6.570;2023-05-21T01:21:27;102089.28;;;14.73;95.32
20909;BME280;10614;53.198;6.570;2023-05-21T01:23:31;102093.63;;;14.76;95.27
20909;BME280;10614;53.198;6.570;2023-05-21T01:25:34;102098.88;;;14.77;95.70
20909;BME280;10614;53.198;6.570;2023-05-21T01:27:36;102095.28;;;14.78;95.41
20909;BME280;10614;53.198;6.570;2023-05-21T01:29:37;102087.50;;;14.74;95.77
20909;BME280;10614;53.198;6.570;2023-05-21T01:31:50;102090.03;;;14.77;95.16
20909;BME280;10614;53.198;6.570;2023-05-21T01:33:55;102080.66;;;14.68;95.65
20909;BME280;10614;53.198;6.570;2023-05-21T01:36:01;102079.59;;;14.72;96.40
20909;BME280;10614;53.198;6.570;2023-05-21T01:38:11;102080.75;;;14.65;96.88
20909;BME280;10614;53.198;6.570;2023-05-21T01:40:21;102068.47;;;14.63;96.34
20909;BME280;10614;53.198;6.570;2023-05-21T01:42:25;102065.66;;;14.67;96.78
20909;BME280;10614;53.198;6.570;2023-05-21T01:44:29;102064.00;;;14.65;97.17
20909;BME280;10614;53.198;6.570;2023-05-21T01:46:33;102069.41;;;14.62;97.18
20909;BME280;10614;53.198;6.570;2023-05-21T01:48:36;102066.69;;;14.63;97.27
20909;BME280;10614;53.198;6.570;2023-05-21T01:50:42;102074.53;;;14.66;97.20
20909;BME280;10614;53.198;6.570;2023-05-21T01:52:51;102069.41;;;14.62;98.08
20909;BME280;10614;53.198;6.570;2023-05-21T01:54:55;102065.09;;;14.59;97.74
20909;BME280;10614;53.198;6.570;2023-05-21T01:56:58;102062.31;;;14.62;98.20
20909;BME280;10614;53.198;6.570;2023-05-21T01:59:01;102070.31;;;14.61;98.30
20909;BME280;10614;53.198;6.570;2023-05-21T02:01:02;102062.63;;;14.54;98.07
20909;BME280;10614;53.198;6.570;2023-05-21T02:03:05;102075.63;;;14.61;97.84
20909;BME280;10614;53.198;6.570;2023-05-21T02:05:08;102079.16;;;14.61;98.54
20909;BME280;10614;53.198;6.570;2023-05-21T02:07:09;102071.25;;;14.60;98.22
20909;BME280;10614;53.198;6.570;2023-05-21T02:09:13;102071.31;;;14.58;98.38
20909;BME280;10614;53.198;6.570;2023-05-21T02:11:15;102071.44;;;14.55;98.34
20909;BME280;10614;53.198;6.570;2023-05-21T02:13:18;102076.81;;;14.52;99.04
20909;BME280;10614;53.198;6.570;2023-05-21T02:15:21;102068.09;;;14.48;98.62
20909;BME280;10614;53.198;6.570;2023-05-21T02:17:27;102053.34;;;14.41;98.96
20909;BME280;10614;53.198;6.570;2023-05-21T02:19:30;102044.88;;;14.31;98.87
20909;BME280;10614;53.198;6.570;2023-05-21T02:21:32;102039.06;;;14.22;99.90
20909;BME280;10614;53.198;6.570;2023-05-21T02:23:37;102071.25;;;14.34;100.00
20909;BME280;10614;53.198;6.570;2023-05-21T02:25:39;102051.38;;;14.23;100.00
20909;BME280;10614;53.198;6.570;2023-05-21T02:27:41;102030.84;;;14.04;100.00
20909;BME280;10614;53.198;6.570;2023-05-21T02:29:45;102060.34;;;14.19;100.00
20909;BME280;10614;53.198;6.570;2023-05-21T02:31:47;102059.59;;;14.15;100.00
20909;BME280;10614;53.198;6.570;2023-05-21T02:33:50;102060.56;;;14.12;100.00
20909;BME280;10614;53.198;6.570;2023-05-21T02:35:52;102042.72;;;13.92;100.00
20909;BME280;10614;53.198;6.570;2023-05-21T02:37:54;102055.41;;;14.09;100.00
20909;BME280;10614;53.198;6.570;2023-05-21T02:39:58;102027.81;;;13.90;100.00
20909;BME280;10614;53.198;6.570;2023-05-21T02:42:02;102032.25;;;13.89;100.00
20909;BME280;10614;53.198;6.570;2023-05-21T02:44:04;102049.38;;;14.04;100.00
20909;BME280;10614;53.198;6.570;2023-05-21T02:46:07;102033.81;;;13.95;100.00
20909;BME280;10614;53.198;6.570;2023-05-21T02:48:09;102046.88;;;14.00;100.00
20909;BME280;10614;53.198;6.570;2023-05-21T02:50:12;102054.81;;;14.00;100.00
20909;BME280;10614;53.198;6.570;2023-05-21T02:52:14;102050.59;;;13.96;100.00
20909;BME280;10614;53.198;6.570;2023-05-21T02:54:18;102045.88;;;14.04;100.00
20909;BME280;10614;53.198;6.570;2023-05-21T02:56:20;102030.41;;;13.91;100.00
20909;BME280;10614;53.198;6.570;2023-05-21T02:58:23;102031.56;;;13.84;100.00
20909;BME280;10614;53.198;6.570;2023-05-21T03:00:25;102048.63;;;14.01;100.00
20909;BME280;10614;53.198;6.570;2023-05-21T03:02:28;102036.72;;;13.87;100.00
20909;BME280;10614;53.198;6.570;2023-05-21T03:04:30;102036.69;;;13.89;100.00
20909;BME280;10614;53.198;6.570;2023-05-21T03:06:32;102026.31;;;13.83;100.00
20909;BME280;10614;53.198;6.570;2023-05-21T03:08:34;102047.94;;;13.96;100.00
20909;BME280;10614;53.198;6.570;2023-05-21T03:10:36;102047.97;;;13.94;100.00
20909;BME280;10614;53.198;6.570;2023-05-21T03:12:37;102034.19;;;13.84;100.00
20909;BME280;10614;53.198;6.570;2023-05-21T03:14:39;102040.91;;;13.94;100.00
20909;BME280;10614;53.198;6.570;2023-05-21T03:16:43;101996.94;;;13.65;100.00
20909;BME280;10614;53.198;6.570;2023-05-21T03:18:47;102041.88;;;13.92;100.00
20909;BME280;10614;53.198;6.570;2023-05-21T03:20:48;102031.72;;;13.80;100.00
20909;BME280;10614;53.198;6.570;2023-05-21T03:22:50;101994.53;;;13.58;100.00
20909;BME280;10614;53.198;6.570;2023-05-21T03:24:54;102003.34;;;13.58;100.00
20909;BME280;10614;53.198;6.570;2023-05-21T03:26:57;102036.91;;;13.83;100.00
20909;BME280;10614;53.198;6.570;2023-05-21T03:29:00;102043.19;;;13.79;100.00
20909;BME280;10614;53.198;6.570;2023-05-21T03:31:02;102043.28;;;13.77;100.00
20909;BME280;10614;53.198;6.570;2023-05-21T03:33:05;102047.72;;;13.77;100.00
20909;BME280;10614;53.198;6.570;2023-05-21T03:35:08;102051.28;;;13.74;100.00
20909;BME280;10614;53.198;6.570;2023-05-21T03:37:10;102046.94;;;13.73;100.00
20909;BME280;10614;53.198;6.570;2023-05-21T03:39:12;102030.69;;;13.57;100.00
20909;BME280;10614;53.198;6.570;2023-05-21T03:41:14;102041.03;;;13.65;100.00
20909;BME280;10614;53.198;6.570;2023-05-21T03:43:16;102050.56;;;13.70;100.00
20909;BME280;10614;53.198;6.570;2023-05-21T03:45:19;102047.91;;;13.70;100.00
20909;BME280;10614;53.198;6.570;2023-05-21T03:47:21;102043.63;;;13.66;100.00
20909;BME280;10614;53.198;6.570;2023-05-21T03:49:23;102051.56;;;13.66;100.00
20909;BME280;10614;53.198;6.570;2023-05-21T03:51:27;102042.91;;;13.61;100.00
20909;BME280;10614;53.198;6.570;2023-05-21T03:53:33;102042.91;;;13.61;100.00
20909;BME280;10614;53.198;6.570;2023-05-21T03:55:35;102039.47;;;13.59;100.00
20909;BME280;10614;53.198;6.570;2023-05-21T03:57:37;102042.88;;;13.63;100.00
20909;BME280;10614;53.198;6.570;2023-05-21T03:59:39;102047.34;;;13.61;100.00
20909;BME280;10614;53.198;6.570;2023-05-21T04:01:41;102047.28;;;13.62;100.00
20909;BME280;10614;53.198;6.570;2023-05-21T04:03:42;102042.06;;;13.61;100.00
20909;BME280;10614;53.198;6.570;2023-05-21T04:05:45;102042.97;;;13.60;100.00
20909;BME280;10614;53.198;6.570;2023-05-21T04:07:48;102037.63;;;13.61;100.00
20909;BME280;10614;53.198;6.570;2023-05-21T04:09:50;102040.13;;;13.66;100.00
20909;BME280;10614;53.198;6.570;2023-05-21T04:11:51;102038.38;;;13.65;100.00
20909;BME280;10614;53.198;6.570;2023-05-21T04:13:53;102041.03;;;13.65;100.00
20909;BME280;10614;53.198;6.570;2023-05-21T04:15:55;102037.44;;;13.67;100.00
20909;BME280;10614;53.198;6.570;2023-05-21T04:17:57;102039.09;;;13.70;100.00
20909;BME280;10614;53.198;6.570;2023-05-21T04:20:00;102037.31;;;13.70;100.00
20909;BME280;10614;53.198;6.570;2023-05-21T04:22:02;102032.19;;;13.66;100.00
20909;BME280;10614;53.198;6.570;2023-05-21T04:24:05;102037.34;;;13.69;100.00
20909;BME280;10614;53.198;6.570;2023-05-21T04:26:07;102039.84;;;13.73;100.00
20909;BME280;10614;53.198;6.570;2023-05-21T04:28:09;102036.22;;;13.76;100.00
20909;BME280;10614;53.198;6.570;2023-05-21T04:30:11;102044.16;;;13.76;100.00
20909;BME280;10614;53.198;6.570;2023-05-21T04:32:13;102035.38;;;13.76;100.00
20909;BME280;10614;53.198;6.570;2023-05-21T04:34:17;102044.25;;;13.75;100.00
20909;BME280;10614;53.198;6.570;2023-05-21T04:36:19;102044.13;;;13.78;100.00
20909;BME280;10614;53.198;6.570;2023-05-21T04:38:21;102043.34;;;13.74;100.00
20909;BME280;10614;53.198;6.570;2023-05-21T04:40:31;102043.97;;;13.82;100.00
20909;BME280;10614;53.198;6.570;2023-05-21T04:42:35;102052.50;;;13.90;100.00
20909;BME280;10614;53.198;6.570;2023-05-21T04:44:39;102036.69;;;13.89;100.00
20909;BME280;10614;53.198;6.570;2023-05-21T04:46:44;102008.91;;;13.76;100.00
20909;BME280;10614;53.198;6.570;2023-05-21T04:48:46;102045.91;;;14.02;100.00
20909;BME280;10614;53.198;6.570;2023-05-21T04:50:50;102037.94;;;14.04;100.00
20909;BME280;10614;53.198;6.570;2023-05-21T04:52:52;102036.38;;;13.98;100.00
20909;BME280;10614;53.198;6.570;2023-05-21T04:54:55;102045.06;;;14.02;100.00
20909;BME280;10614;53.198;6.570;2023-05-21T04:56:58;102042.47;;;14.00;100.00
20909;BME280;10614;53.198;6.570;2023-05-21T04:59:02;102046.84;;;14.01;100.00
20909;BME280;10614;53.198;6.570;2023-05-21T05:01:06;102044.41;;;13.95;100.00
20909;BME280;10614;53.198;6.570;2023-05-21T05:03:08;102049.44;;;14.03;100.00
20909;BME280;10614;53.198;6.570;2023-05-21T05:05:13;102020.16;;;13.82;100.00
20909;BME280;10614;53.198;6.570;2023-05-21T05:07:15;102038.78;;;14.04;100.00
20909;BME280;10614;53.198;6.570;2023-05-21T05:09:17;102030.09;;;14.01;100.00
20909;BME280;10614;53.198;6.570;2023-05-21T05:11:24;102042.84;;;14.14;100.00
20909;BME280;10614;53.198;6.570;2023-05-21T05:13:27;102040.09;;;14.18;100.00
20909;BME280;10614;53.198;6.570;2023-05-21T05:15:29;102028.56;;;14.19;100.00
20909;BME280;10614;53.198;6.570;2023-05-21T05:17:31;102039.72;;;14.28;100.00
20909;BME280;10614;53.198;6.570;2023-05-21T05:19:33;102030.00;;;14.27;100.00
20909;BME280;10614;53.198;6.570;2023-05-21T05:21:35;102030.66;;;14.34;100.00
20909;BME280;10614;53.198;6.570;2023-05-21T05:23:38;102015.78;;;14.30;100.00
20909;BME280;10614;53.198;6.570;2023-05-21T05:25:40;102022.84;;;14.31;100.00
20909;BME280;10614;53.198;6.570;2023-05-21T05:27:41;102026.22;;;14.34;100.00
20909;BME280;10614;53.198;6.570;2023-05-21T05:29:45;102020.03;;;14.35;100.00
20909;BME280;10614;53.198;6.570;2023-05-21T05:31:47;102029.47;;;14.43;100.00
20909;BME280;10614;53.198;6.570;2023-05-21T05:33:49;102032.84;;;14.46;100.00
20909;BME280;10614;53.198;6.570;2023-05-21T05:35:51;102027.63;;;14.45;100.00
20909;BME280;10614;53.198;6.570;2023-05-21T05:37:53;102028.47;;;14.45;100.00
20909;BME280;10614;53.198;6.570;2023-05-21T05:39:55;102025.16;;;14.40;100.00
20909;BME280;10614;53.198;6.570;2023-05-21T05:41:57;102032.81;;;14.48;100.00
20909;BME280;10614;53.198;6.570;2023-05-21T05:43:59;102032.69;;;14.51;100.00
20909;BME280;10614;53.198;6.570;2023-05-21T05:46:02;102012.72;;;14.42;100.00
20909;BME280;10614;53.198;6.570;2023-05-21T05:48:04;102027.25;;;14.55;100.00
20909;BME280;10614;53.198;6.570;2023-05-21T05:50:07;102023.59;;;14.58;100.00
20909;BME280;10614;53.198;6.570;2023-05-21T05:52:09;102031.50;;;14.60;100.00
20909;BME280;10614;53.198;6.570;2023-05-21T05:54:10;102019.28;;;14.55;100.00
20909;BME280;10614;53.198;6.570;2023-05-21T05:56:12;102028.72;;;14.63;100.00
20909;BME280;10614;53.198;6.570;2023-05-21T05:58:16;102004.97;;;14.61;100.00
20909;BME280;10614;53.198;6.570;2023-05-21T06:00:18;102020.59;;;14.67;100.00
20909;BME280;10614;53.198;6.570;2023-05-21T06:02:24;102002.63;;;14.52;100.00
20909;BME280;10614;53.198;6.570;2023-05-21T06:04:26;102017.22;;;14.64;100.00
20909;BME280;10614;53.198;6.570;2023-05-21T06:06:29;102018.94;;;14.65;100.00
20909;BME280;10614;53.198;6.570;2023-05-21T06:08:31;102015.59;;;14.60;100.00
20909;BME280;10614;53.198;6.570;2023-05-21T06:10:35;101993.22;;;14.43;100.00
20909;BME280;10614;53.198;6.570;2023-05-21T06:12:37;101999.16;;;14.50;100.00
20909;BME280;10614;53.198;6.570;2023-05-21T06:14:39;102025.09;;;14.65;100.00
20909;BME280;10614;53.198;6.570;2023-05-21T06:16:41;102023.22;;;14.69;100.00
20909;BME280;10614;53.198;6.570;2023-05-21T06:18:47;102022.28;;;14.70;100.00
20909;BME280;10614;53.198;6.570;2023-05-21T06:20:49;101987.72;;;14.49;100.00
20909;BME280;10614;53.198;6.570;2023-05-21T06:22:51;102020.38;;;14.73;100.00
20909;BME280;10614;53.198;6.570;2023-05-21T06:24:53;102012.59;;;14.69;100.00
20909;BME280;10614;53.198;6.570;2023-05-21T06:27:00;102002.81;;;14.71;100.00
20909;BME280;10614;53.198;6.570;2023-05-21T06:29:03;102019.03;;;14.85;100.00
20909;BME280;10614;53.198;6.570;2023-05-21T06:31:08;102001.66;;;14.78;100.00
20909;BME280;10614;53.198;6.570;2023-05-21T06:33:11;102005.75;;;14.87;100.00
20909;BME280;10614;53.198;6.570;2023-05-21T06:35:18;102006.59;;;14.87;100.00
20909;BME280;10614;53.198;6.570;2023-05-21T06:37:21;102005.91;;;14.82;100.00
20909;BME280;10614;53.198;6.570;2023-05-21T06:39:25;102010.09;;;14.88;100.00
20909;BME280;10614;53.198;6.570;2023-05-21T06:41:27;101997.97;;;14.82;100.00
20909;BME280;10614;53.198;6.570;2023-05-21T06:43:29;101995.50;;;14.77;100.00
20909;BME280;10614;53.198;6.570;2023-05-21T06:45:32;101952.28;;;14.52;100.00
20909;BME280;10614;53.198;6.570;2023-05-21T06:47:36;101926.25;;;14.40;100.00
20909;BME280;10614;53.198;6.570;2023-05-21T06:49:38;101951.34;;;14.54;100.00
20909;BME280;10614;53.198;6.570;2023-05-21T06:51:41;101988.91;;;14.88;100.00
20909;BME280;10614;53.198;6.570;2023-05-21T06:53:43;101997.38;;;14.96;100.00
20909;BME280;10614;53.198;6.570;2023-05-21T06:55:45;101998.00;;;15.03;100.00
20909;BME280;10614;53.198;6.570;2023-05-21T06:57:47;101995.31;;;15.04;100.00
20909;BME280;10614;53.198;6.570;2023-05-21T06:59:49;102000.44;;;15.09;100.00
20909;BME280;10614;53.198;6.570;2023-05-21T07:01:50;102001.16;;;15.12;100.00
20909;BME280;10614;53.198;6.570;2023-05-21T07:03:53;101999.25;;;15.16;100.00
20909;BME280;10614;53.198;6.570;2023-05-21T07:05:56;101992.97;;;15.18;100.00
20909;BME280;10614;53.198;6.570;2023-05-21T07:07:59;101996.47;;;15.19;100.00
20909;BME280;10614;53.198;6.570;2023-05-21T07:10:02;101993.63;;;15.24;100.00
20909;BME280;10614;53.198;6.570;2023-05-21T07:12:06;101995.97;;;15.31;100.00
20909;BME280;10614;53.198;6.570;2023-05-21T07:14:08;101987.03;;;15.34;100.00
20909;BME280;10614;53.198;6.570;2023-05-21T07:16:10;101982.38;;;15.39;100.00
20909;BME280;10614;53.198;6.570;2023-05-21T07:18:12;101984.03;;;15.41;100.00
20909;BME280;10614;53.198;6.570;2023-05-21T07:20:14;101982.09;;;15.45;100.00
20909;BME280;10614;53.198;6.570;2023-05-21T07:22:16;101989.81;;;15.51;100.00
20909;BME280;10614;53.198;6.570;2023-05-21T07:24:19;101950.13;;;15.28;100.00
20909;BME280;10614;53.198;6.570;2023-05-21T07:26:21;101978.34;;;15.51;100.00
20909;BME280;10614;53.198;6.570;2023-05-21T07:28:23;101988.91;;;15.52;99.80
20909;BME280;10614;53.198;6.570;2023-05-21T07:30:25;101990.56;;;15.55;100.00
20909;BME280;10614;53.198;6.570;2023-05-21T07:32:27;101977.16;;;15.58;100.00
20909;BME280;10614;53.198;6.570;2023-05-21T07:34:31;101995.91;;;15.75;100.00
20909;BME280;10614;53.198;6.570;2023-05-21T07:36:33;101998.56;;;15.75;98.84
20909;BME280;10614;53.198;6.570;2023-05-21T07:38:35;101987.22;;;15.72;99.31
20909;BME280;10614;53.198;6.570;2023-05-21T07:40:39;101994.19;;;15.74;98.88
20909;BME280;10614;53.198;6.570;2023-05-21T07:42:41;101994.50;;;15.87;99.66
20909;BME280;10614;53.198;6.570;2023-05-21T07:44:44;101981.75;;;15.95;98.70
20909;BME280;10614;53.198;6.570;2023-05-21T07:46:49;101989.53;;;16.00;98.46
20909;BME280;10614;53.198;6.570;2023-05-21T07:48:51;101979.91;;;15.97;98.48
20909;BME280;10614;53.198;6.570;2023-05-21T07:50:52;101982.94;;;16.09;97.65
20909;BME280;10614;53.198;6.570;2023-05-21T07:52:55;101975.63;;;16.14;97.69
20909;BME280;10614;53.198;6.570;2023-05-21T07:54:57;101972.03;;;16.15;96.48
20909;BME280;10614;53.198;6.570;2023-05-21T07:57:00;101968.16;;;16.22;96.63
20909;BME280;10614;53.198;6.570;2023-05-21T07:59:02;101972.94;;;16.34;96.43
20909;BME280;10614;53.198;6.570;2023-05-21T08:01:04;101977.72;;;16.45;95.96
20909;BME280;10614;53.198;6.570;2023-05-21T08:03:06;101964.97;;;16.53;96.29
20909;BME280;10614;53.198;6.570;2023-05-21T08:05:08;101974.28;;;16.62;95.11
20909;BME280;10614;53.198;6.570;2023-05-21T08:07:10;101977.88;;;16.61;94.02
20909;BME280;10614;53.198;6.570;2023-05-21T08:09:13;101969.63;;;16.67;94.08
20909;BME280;10614;53.198;6.570;2023-05-21T08:11:14;101969.25;;;16.75;93.58
20909;BME280;10614;53.198;6.570;2023-05-21T08:13:18;101970.72;;;16.82;92.61
20909;BME280;10614;53.198;6.570;2023-05-21T08:15:20;101957.34;;;16.83;92.93
20909;BME280;10614;53.198;6.570;2023-05-21T08:17:22;101970.03;;;16.96;92.98
20909;BME280;10614;53.198;6.570;2023-05-21T08:19:23;101975.75;;;17.05;93.57
20909;BME280;10614;53.198;6.570;2023-05-21T08:21:25;101968.56;;;17.07;92.05
20909;BME280;10614;53.198;6.570;2023-05-21T08:23:27;101965.47;;;17.17;91.73
20909;BME280;10614;53.198;6.570;2023-05-21T08:25:29;101961.72;;;17.21;92.03
20909;BME280;10614;53.198;6.570;2023-05-21T08:27:43;101971.19;;;17.26;90.59
20909;BME280;10614;53.198;6.570;2023-05-21T08:29:46;101968.13;;;17.34;91.28
20909;BME280;10614;53.198;6.570;2023-05-21T08:31:48;101971.16;;;17.44;90.88
20909;BME280;10614;53.198;6.570;2023-05-21T08:33:52;101984.00;;;17.53;89.65
20909;BME280;10614;53.198;6.570;2023-05-21T08:35:55;101977.59;;;17.57;90.15
20909;BME280;10614;53.198;6.570;2023-05-21T08:37:58;101973.31;;;17.55;88.65
20909;BME280;10614;53.198;6.570;2023-05-21T08:40:00;101967.34;;;17.49;88.53
20909;BME280;10614;53.198;6.570;2023-05-21T08:42:08;101976.75;;;17.57;88.79
20909;BME280;10614;53.198;6.570;2023-05-21T08:44:12;101975.41;;;17.65;88.77
20909;BME280;10614;53.198;6.570;2023-05-21T08:46:17;101974.91;;;17.75;88.76
20909;BME280;10614;53.198;6.570;2023-05-21T08:48:23;101980.09;;;17.78;88.58
20909;BME280;10614;53.198;6.570;2023-05-21T08:50:26;101976.66;;;17.76;87.45
20909;BME280;10614;53.198;6.570;2023-05-21T08:52:29;101978.28;;;17.78;87.32
20909;BME280;10614;53.198;6.570;2023-05-21T08:54:31;101967.50;;;17.81;87.64
20909;BME280;10614;53.198;6.570;2023-05-21T08:56:34;101973.75;;;17.80;87.70
20909;BME280;10614;53.198;6.570;2023-05-21T08:58:37;101974.91;;;17.75;87.26
20909;BME280;10614;53.198;6.570;2023-05-21T09:00:41;101975.09;;;17.71;87.25
20909;BME280;10614;53.198;6.570;2023-05-21T09:02:45;101981.25;;;17.72;87.25
20909;BME280;10614;53.198;6.570;2023-05-21T09:04:47;101980.00;;;17.79;86.57
20909;BME280;10614;53.198;6.570;2023-05-21T09:06:50;101979.56;;;17.88;86.64
20909;BME280;10614;53.198;6.570;2023-05-21T09:08:57;101977.34;;;17.97;86.62
20909;BME280;10614;53.198;6.570;2023-05-21T09:11:00;101981.34;;;18.05;86.19
20909;BME280;10614;53.198;6.570;2023-05-21T09:13:03;101976.63;;;18.10;85.76
20909;BME280;10614;53.198;6.570;2023-05-21T09:15:07;101977.22;;;18.16;84.85
20909;BME280;10614;53.198;6.570;2023-05-21T09:17:12;101963.97;;;18.14;83.44
20909;BME280;10614;53.198;6.570;2023-05-21T09:19:15;101969.56;;;18.09;83.17
20909;BME280;10614;53.198;6.570;2023-05-21T09:21:24;101964.22;;;18.09;83.46
20909;BME280;10614;53.198;6.570;2023-05-21T09:23:27;101969.25;;;18.16;84.31
20909;BME280;10614;53.198;6.570;2023-05-21T09:25:30;101962.94;;;18.01;81.38
20909;BME280;10614;53.198;6.570;2023-05-21T09:27:32;101971.63;;;18.04;82.63
20909;BME280;10614;53.198;6.570;2023-05-21T09:29:35;101973.00;;;18.11;83.17
20909;BME280;10614;53.198;6.570;2023-05-21T09:31:42;101977.16;;;18.17;82.64
20909;BME280;10614;53.198;6.570;2023-05-21T09:33:45;101965.72;;;18.15;81.12
20909;BME280;10614;53.198;6.570;2023-05-21T09:35:49;101963.06;;;18.15;80.29
20909;BME280;10614;53.198;6.570;2023-05-21T09:37:52;101967.97;;;18.23;80.37
20909;BME280;10614;53.198;6.570;2023-05-21T09:39:54;101955.84;;;18.33;81.28
20909;BME280;10614;53.198;6.570;2023-05-21T09:41:56;101954.31;;;18.45;79.96
20909;BME280;10614;53.198;6.570;2023-05-21T09:43:58;101959.91;;;18.56;79.08
20909;BME280;10614;53.198;6.570;2023-05-21T09:46:00;101961.38;;;18.62;78.76
20909;BME280;10614;53.198;6.570;2023-05-21T09:48:02;101943.84;;;18.73;78.68
20909;BME280;10614;53.198;6.570;2023-05-21T09:50:06;101950.72;;;18.77;77.01
20909;BME280;10614;53.198;6.570;2023-05-21T09:52:09;101952.53;;;18.77;76.86
20909;BME280;10614;53.198;6.570;2023-05-21T09:54:11;101949.59;;;18.82;77.60
20909;BME280;10614;53.198;6.570;2023-05-21T10:55:28;101915.78;;;19.43;73.64
20909;BME280;10614;53.198;6.570;2023-05-21T11:00:44;101883.09;;;19.53;73.75
20909;BME280;10614;53.198;6.570;2023-05-21T11:03:19;101857.25;;;19.39;72.58
20909;BME280;10614;53.198;6.570;2023-05-21T11:05:53;101901.03;;;19.66;72.60
20909;BME280;10614;53.198;6.570;2023-05-21T11:08:24;101899.34;;;19.65;72.83
20909;BME280;10614;53.198;6.570;2023-05-21T11:10:42;101815.06;;;19.16;72.86
20909;BME280;10614;53.198;6.570;2023-05-21T11:21:51;101881.72;;;20.47;73.46
20909;BME280;10614;53.198;6.570;2023-05-21T11:24:05;101797.34;;;19.87;72.43
20909;BME280;10614;53.198;6.570;2023-05-21T11:26:19;101815.53;;;20.09;73.63
20909;BME280;10614;53.198;6.570;2023-05-21T11:28:32;101801.72;;;20.02;73.38
20909;BME280;10614;53.198;6.570;2023-05-21T11:30:35;101886.91;;;20.62;73.64
20909;BME280;10614;53.198;6.570;2023-05-21T11:32:38;101843.84;;;20.53;73.31
20909;BME280;10614;53.198;6.570;2023-05-21T11:34:49;101802.72;;;20.41;73.46
20909;BME280;10614;53.198;6.570;2023-05-21T11:41:59;101821.13;;;20.45;71.60
20909;BME280;10614;53.198;6.570;2023-05-21T11:44:08;101881.25;;;20.81;72.19
20909;BME280;10614;53.198;6.570;2023-05-21T11:46:50;101878.78;;;20.91;72.29
20909;BME280;10614;53.198;6.570;2023-05-21T11:49:16;101850.47;;;20.74;70.90
20909;BME280;10614;53.198;6.570;2023-05-21T11:51:39;101850.69;;;20.44;69.60
20909;BME280;10614;53.198;6.570;2023-05-21T11:53:50;101865.81;;;20.31;70.80
20909;BME280;10614;53.198;6.570;2023-05-21T11:56:22;101873.66;;;20.19;72.89
20909;BME280;10614;53.198;6.570;2023-05-21T12:07:39;101839.59;;;19.66;76.51
20909;BME280;10614;53.198;6.570;2023-05-21T12:09:50;101776.94;;;19.43;77.15